createdAt,value
2023-03-15T00:00:01.168Z,0.48
2023-03-15T00:01:01.172Z,0.42
2023-03-15T00:02:01.304Z,0.42
2023-03-15T00:03:01.183Z,0.48
2023-03-15T00:04:01.278Z,0.42
2023-03-15T00:05:01.197Z,0.49
2023-03-15T00:06:01.225Z,0.39
2023-03-15T00:07:01.214Z,0.34
2023-03-15T00:08:02.790Z,0.37
2023-03-15T00:09:01.227Z,0.42
2023-03-15T00:10:01.241Z,0.42
2023-03-15T00:11:01.242Z,0.34
2023-03-15T00:12:01.256Z,0.40
2023-03-15T00:13:01.262Z,0.36
2023-03-15T00:14:01.265Z,0.40
2023-03-15T00:15:01.274Z,0.30
2023-03-15T00:16:01.368Z,0.33
2023-03-15T00:17:01.287Z,0.29
2023-03-15T00:18:01.317Z,0.39
2023-03-15T00:19:01.306Z,0.33
2023-03-15T00:20:01.351Z,0.37
2023-03-15T00:21:01.326Z,0.33
2023-03-15T00:22:01.327Z,0.36
2023-03-15T00:23:01.335Z,0.36
2023-03-15T00:24:01.346Z,0.34
2023-03-15T00:25:01.350Z,0.36
2023-03-15T00:26:01.354Z,0.33
2023-03-15T00:27:01.360Z,0.30
2023-03-15T00:28:01.371Z,0.27
2023-03-15T00:29:01.380Z,0.40
2023-03-15T00:30:01.388Z,0.33
2023-03-15T00:31:01.404Z,0.31
2023-03-15T00:32:01.402Z,0.36
2023-03-15T00:33:01.414Z,0.33
2023-03-15T00:34:01.415Z,0.36
2023-03-15T00:35:01.430Z,0.33
2023-03-15T00:36:01.469Z,0.31
2023-03-15T00:37:01.443Z,0.33
2023-03-15T00:38:01.446Z,0.33
2023-03-15T00:39:01.458Z,0.31
2023-03-15T00:40:01.487Z,0.27
2023-03-15T00:41:01.471Z,0.26
2023-03-15T00:42:01.484Z,0.30
2023-03-15T00:43:01.492Z,0.30
2023-03-15T00:44:01.501Z,0.33
2023-03-15T00:45:01.504Z,0.36
2023-03-15T00:46:01.510Z,0.31
2023-03-15T00:47:01.515Z,0.34
2023-03-15T00:48:01.529Z,0.29
2023-03-15T00:49:01.535Z,0.29
2023-03-15T00:50:01.549Z,0.31
2023-03-15T00:51:01.561Z,0.34
2023-03-15T00:52:01.570Z,0.20
2023-03-15T00:53:01.564Z,0.26
2023-03-15T00:54:01.578Z,0.30
2023-03-15T00:55:01.576Z,0.33
2023-03-15T00:56:01.589Z,0.36
2023-03-15T00:57:01.592Z,0.31
2023-03-15T00:58:01.603Z,0.33
2023-03-15T00:59:01.618Z,0.34
2023-03-15T01:00:01.614Z,0.26
2023-03-15T01:01:01.623Z,0.27
2023-03-15T01:02:01.681Z,0.31
2023-03-15T01:03:01.670Z,0.29
2023-03-15T01:04:01.657Z,0.29
2023-03-15T01:05:01.660Z,0.27
2023-03-15T01:06:01.659Z,0.27
2023-03-15T01:07:01.667Z,0.27
2023-03-15T01:08:01.675Z,0.30
2023-03-15T01:09:01.722Z,0.24
2023-03-15T01:10:01.690Z,0.24
2023-03-15T01:11:01.699Z,0.24
2023-03-15T01:12:01.704Z,0.26
2023-03-15T01:13:01.721Z,0.29
2023-03-15T01:14:01.720Z,0.27
2023-03-15T01:15:01.737Z,0.26
2023-03-15T01:16:01.739Z,0.29
2023-03-15T01:17:01.752Z,0.29
2023-03-15T01:18:01.761Z,0.24
2023-03-15T01:19:01.761Z,0.16
2023-03-15T01:20:01.770Z,0.26
2023-03-15T01:21:01.775Z,0.09
2023-03-15T01:22:01.781Z,0.18
2023-03-15T01:23:01.787Z,0.15
2023-03-15T01:24:01.795Z,0.18
2023-03-15T01:25:01.802Z,0.15
2023-03-15T01:26:01.814Z,0.19
2023-03-15T01:27:01.816Z,0.20
2023-03-15T01:28:01.825Z,0.13
2023-03-15T01:29:01.842Z,0.16
2023-03-15T01:30:01.840Z,0.18
2023-03-15T01:31:01.906Z,0.13
2023-03-15T01:32:01.855Z,0.18
2023-03-15T01:33:01.859Z,0.16
2023-03-15T01:34:01.870Z,0.16
2023-03-15T01:35:01.893Z,0.15
2023-03-15T01:36:01.954Z,0.16
2023-03-15T01:37:01.891Z,0.06
2023-03-15T01:38:01.895Z,0.08
2023-03-15T01:39:01.907Z,0.08
2023-03-15T01:40:01.917Z,0.02
2023-03-15T01:41:01.927Z,0.01
2023-03-15T01:42:01.928Z,0.12
2023-03-15T01:43:01.942Z,0.02
2023-03-15T01:44:01.944Z,0.08
2023-03-15T01:45:01.950Z,0.02
2023-03-15T01:46:01.957Z,0.08
2023-03-15T01:47:02.024Z,0.08
2023-03-15T01:48:01.996Z,0.06
2023-03-15T01:49:01.981Z,0.09
2023-03-15T01:50:01.987Z,0.05
2023-03-15T01:51:01.999Z,0.02
2023-03-15T01:52:01.999Z,0.00
2023-03-15T01:53:02.007Z,0.01
2023-03-15T01:54:02.019Z,-0.03
2023-03-15T01:55:02.026Z,-0.10
2023-03-15T01:56:02.035Z,-0.07
2023-03-15T01:57:02.045Z,-0.06
2023-03-15T01:58:02.070Z,-0.06
2023-03-15T01:59:02.055Z,-0.03
2023-03-15T02:00:02.119Z,-0.10
2023-03-15T02:01:02.124Z,-0.07
2023-03-15T02:02:02.136Z,-0.10
2023-03-15T02:03:02.081Z,-0.06
2023-03-15T02:04:02.092Z,-0.12
2023-03-15T02:05:02.140Z,-0.09
2023-03-15T02:06:02.115Z,-0.12
2023-03-15T02:07:02.115Z,-0.06
2023-03-15T02:08:02.120Z,-0.15
2023-03-15T02:09:02.133Z,-0.06
2023-03-15T02:10:02.138Z,-0.15
2023-03-15T02:11:02.153Z,-0.18
2023-03-15T02:12:02.150Z,-0.20
2023-03-15T02:13:02.164Z,-0.15
2023-03-15T02:14:02.182Z,-0.20
2023-03-15T02:15:02.195Z,-0.27
2023-03-15T02:16:02.238Z,-0.27
2023-03-15T02:17:02.188Z,-0.28
2023-03-15T02:18:02.193Z,-0.27
2023-03-15T02:19:02.202Z,-0.38
2023-03-15T02:20:02.211Z,-0.27
2023-03-15T02:21:02.219Z,-0.35
2023-03-15T02:22:02.222Z,-0.31
2023-03-15T02:23:02.237Z,-0.36
2023-03-15T02:24:02.236Z,-0.28
2023-03-15T02:25:02.246Z,-0.28
2023-03-15T02:26:02.265Z,-0.30
2023-03-15T02:27:02.336Z,-0.39
2023-03-15T02:28:02.264Z,-0.38
2023-03-15T02:29:02.284Z,-0.36
2023-03-15T02:30:02.297Z,-0.41
2023-03-15T02:31:02.290Z,-0.45
2023-03-15T02:32:02.395Z,-0.38
2023-03-15T02:33:02.308Z,-0.39
2023-03-15T02:34:02.321Z,-0.39
2023-03-15T02:35:02.355Z,-0.33
2023-03-15T02:36:02.435Z,-0.28
2023-03-15T02:37:02.342Z,-0.26
2023-03-15T02:38:02.336Z,-0.12
2023-03-15T02:39:02.343Z,-0.15
2023-03-15T02:40:02.362Z,-0.10
2023-03-15T02:41:02.360Z,0.00
2023-03-15T02:42:02.365Z,0.00
2023-03-15T02:43:02.374Z,0.12
2023-03-15T02:44:02.380Z,-0.02
2023-03-15T02:45:02.388Z,0.05
2023-03-15T02:46:02.421Z,0.09
2023-03-15T02:47:02.402Z,0.13
2023-03-15T02:48:02.410Z,0.24
2023-03-15T02:49:02.418Z,0.18
2023-03-15T02:50:02.427Z,0.15
2023-03-15T02:51:02.432Z,0.13
2023-03-15T02:52:02.440Z,0.19
2023-03-15T02:53:02.447Z,0.18
2023-03-15T02:54:02.461Z,0.19
2023-03-15T02:55:02.457Z,0.06
2023-03-15T02:56:02.467Z,0.19
2023-03-15T02:57:02.478Z,0.20
2023-03-15T02:58:02.486Z,0.15
2023-03-15T02:59:02.489Z,0.08
2023-03-15T03:00:02.497Z,0.24
2023-03-15T03:01:02.547Z,0.18
2023-03-15T03:02:02.563Z,0.16
2023-03-15T03:03:02.520Z,0.12
2023-03-15T03:04:02.530Z,0.18
2023-03-15T03:05:02.536Z,0.15
2023-03-15T03:06:02.545Z,0.18
2023-03-15T03:07:02.547Z,0.20
2023-03-15T03:08:02.556Z,0.16
2023-03-15T03:09:02.564Z,0.20
2023-03-15T03:10:02.569Z,0.15
2023-03-15T03:11:02.579Z,0.15
2023-03-15T03:12:02.622Z,0.18
2023-03-15T03:13:02.595Z,0.12
2023-03-15T03:14:02.596Z,0.16
2023-03-15T03:15:02.604Z,0.11
2023-03-15T03:16:02.609Z,0.20
2023-03-15T03:17:02.698Z,0.20
2023-03-15T03:18:02.625Z,0.24
2023-03-15T03:19:02.633Z,0.20
2023-03-15T03:20:02.656Z,0.20
2023-03-15T03:21:02.646Z,0.15
2023-03-15T03:22:02.650Z,0.20
2023-03-15T03:23:02.656Z,0.20
2023-03-15T03:24:02.663Z,0.13
2023-03-15T03:25:02.682Z,0.26
2023-03-15T03:26:02.677Z,0.26
2023-03-15T03:27:02.683Z,0.18
2023-03-15T03:28:02.697Z,0.27
2023-03-15T03:29:02.700Z,0.19
2023-03-15T03:30:02.715Z,0.19
2023-03-15T03:31:02.788Z,0.11
2023-03-15T03:32:02.719Z,0.19
2023-03-15T03:33:02.797Z,0.15
2023-03-15T03:34:02.730Z,0.13
2023-03-15T03:35:02.738Z,0.13
2023-03-15T03:36:02.783Z,0.18
2023-03-15T03:37:02.754Z,0.13
2023-03-15T03:38:02.782Z,0.11
2023-03-15T03:39:02.766Z,0.06
2023-03-15T03:40:02.772Z,0.02
2023-03-15T03:41:02.781Z,0.08
2023-03-15T03:42:02.786Z,0.11
2023-03-15T03:43:02.805Z,0.00
2023-03-15T03:44:02.803Z,0.05
2023-03-15T03:45:02.807Z,0.08
2023-03-15T03:46:02.878Z,0.06
2023-03-15T03:47:02.820Z,0.06
2023-03-15T03:48:02.833Z,0.05
2023-03-15T03:49:02.836Z,0.08
2023-03-15T03:50:02.848Z,0.11
2023-03-15T03:51:02.847Z,0.08
2023-03-15T03:52:02.874Z,0.09
2023-03-15T03:53:02.868Z,0.06
2023-03-15T03:54:02.869Z,0.02
2023-03-15T03:55:02.879Z,0.09
2023-03-15T03:56:02.890Z,0.01
2023-03-15T03:57:02.894Z,-0.03
2023-03-15T03:58:02.898Z,-0.05
2023-03-15T03:59:02.905Z,-0.07
2023-03-15T04:00:02.913Z,-0.10
2023-03-15T04:01:02.918Z,-0.06
2023-03-15T04:02:02.927Z,-0.06
2023-03-15T04:03:02.933Z,-0.18
2023-03-15T04:04:02.939Z,-0.20
2023-03-15T04:05:02.945Z,-0.17
2023-03-15T04:06:02.952Z,-0.15
2023-03-15T04:07:02.959Z,-0.24
2023-03-15T04:08:02.980Z,-0.21
2023-03-15T04:09:02.981Z,-0.24
2023-03-15T04:10:02.984Z,-0.21
2023-03-15T04:11:02.987Z,-0.23
2023-03-15T04:12:03.107Z,-0.31
2023-03-15T04:13:03.001Z,-0.30
2023-03-15T04:14:03.023Z,-0.23
2023-03-15T04:15:03.013Z,-0.35
2023-03-15T04:16:03.047Z,-0.30
2023-03-15T04:17:03.027Z,-0.35
2023-03-15T04:18:03.033Z,-0.35
2023-03-15T04:19:03.041Z,-0.28
2023-03-15T04:20:03.046Z,-0.33
2023-03-15T04:21:03.064Z,-0.44
2023-03-15T04:22:03.118Z,-0.42
2023-03-15T04:23:03.072Z,-0.45
2023-03-15T04:24:03.075Z,-0.53
2023-03-15T04:25:03.082Z,-0.45
2023-03-15T04:26:03.088Z,-0.48
2023-03-15T04:27:03.096Z,-0.48
2023-03-15T04:28:03.104Z,-0.56
2023-03-15T04:29:03.110Z,-0.53
2023-03-15T04:30:03.117Z,-0.54
2023-03-15T04:31:03.156Z,-0.56
2023-03-15T04:32:03.139Z,-0.63
2023-03-15T04:33:03.140Z,-0.66
2023-03-15T04:34:03.146Z,-0.63
2023-03-15T04:35:03.155Z,-0.62
2023-03-15T04:36:03.221Z,-0.66
2023-03-15T04:37:03.177Z,-0.72
2023-03-15T04:38:03.175Z,-0.67
2023-03-15T04:39:03.205Z,-0.70
2023-03-15T04:40:03.187Z,-0.78
2023-03-15T04:41:03.195Z,-0.75
2023-03-15T04:42:03.203Z,-0.74
2023-03-15T04:43:03.216Z,-0.75
2023-03-15T04:44:03.221Z,-0.82
2023-03-15T04:45:03.226Z,-0.82
2023-03-15T04:46:03.225Z,-0.93
2023-03-15T04:47:03.258Z,-0.78
2023-03-15T04:48:03.243Z,-0.81
2023-03-15T04:49:03.250Z,-0.84
2023-03-15T04:50:03.264Z,-0.89
2023-03-15T04:51:03.262Z,-0.87
2023-03-15T04:52:03.272Z,-0.87
2023-03-15T04:53:03.288Z,-0.87
2023-03-15T04:54:03.285Z,-0.94
2023-03-15T04:55:03.293Z,-0.84
2023-03-15T04:56:04.855Z,-0.96
2023-03-15T04:57:03.311Z,-0.94
2023-03-15T04:58:03.314Z,-0.91
2023-03-15T04:59:03.318Z,-0.85
2023-03-15T05:00:03.332Z,-0.89
2023-03-15T05:01:03.404Z,-0.94
2023-03-15T05:02:04.074Z,-0.87
2023-03-15T05:03:03.348Z,-1.00
2023-03-15T05:04:03.352Z,-0.87
2023-03-15T05:05:03.356Z,-0.94
2023-03-15T05:06:03.363Z,-0.97
2023-03-15T05:07:03.369Z,-0.99
2023-03-15T05:08:03.376Z,-1.00
2023-03-15T05:09:03.381Z,-0.93
2023-03-15T05:10:03.388Z,-0.97
2023-03-15T05:11:03.400Z,-0.97
2023-03-15T05:12:03.400Z,-1.00
2023-03-15T05:13:03.407Z,-1.06
2023-03-15T05:14:03.413Z,-1.01
2023-03-15T05:15:03.518Z,-1.09
2023-03-15T05:16:03.474Z,-1.01
2023-03-15T05:17:03.439Z,-1.06
2023-03-15T05:18:03.439Z,-1.09
2023-03-15T05:19:03.447Z,-1.11
2023-03-15T05:20:03.452Z,-1.12
2023-03-15T05:21:03.459Z,-1.00
2023-03-15T05:22:03.464Z,-1.06
2023-03-15T05:23:03.472Z,-1.01
2023-03-15T05:24:03.483Z,-1.01
2023-03-15T05:25:03.488Z,-1.01
2023-03-15T05:26:03.497Z,-1.06
2023-03-15T05:27:03.499Z,-1.06
2023-03-15T05:28:03.504Z,-1.00
2023-03-15T05:29:03.517Z,-0.97
2023-03-15T05:30:03.521Z,-0.96
2023-03-15T05:31:03.526Z,-0.99
2023-03-15T05:32:03.564Z,-0.99
2023-03-15T05:33:03.537Z,-0.97
2023-03-15T05:34:03.543Z,-0.85
2023-03-15T05:35:03.554Z,-0.97
2023-03-15T05:36:03.563Z,-0.89
2023-03-15T05:37:03.569Z,-0.89
2023-03-15T05:38:03.592Z,-0.89
2023-03-15T05:39:03.596Z,-0.85
2023-03-15T05:40:03.584Z,-0.84
2023-03-15T05:41:03.600Z,-0.93
2023-03-15T05:42:03.594Z,-0.85
2023-03-15T05:43:03.599Z,-0.85
2023-03-15T05:44:03.616Z,-0.84
2023-03-15T05:45:03.618Z,-0.84
2023-03-15T05:46:03.643Z,-0.84
2023-03-15T05:47:03.637Z,-0.81
2023-03-15T05:48:03.633Z,-0.81
2023-03-15T05:49:03.645Z,-0.77
2023-03-15T05:50:03.650Z,-0.75
2023-03-15T05:51:03.656Z,-0.77
2023-03-15T05:52:03.664Z,-0.80
2023-03-15T05:53:03.669Z,-0.69
2023-03-15T05:54:03.685Z,-0.75
2023-03-15T05:55:03.684Z,-0.77
2023-03-15T05:56:03.691Z,-0.69
2023-03-15T05:57:03.696Z,-0.72
2023-03-15T05:58:03.705Z,-0.72
2023-03-15T05:59:03.710Z,-0.64
2023-03-15T06:00:03.726Z,-0.62
2023-03-15T06:01:03.722Z,-0.54
2023-03-15T06:02:03.727Z,-0.59
2023-03-15T06:03:03.833Z,-0.56
2023-03-15T06:04:03.782Z,-0.63
2023-03-15T06:05:03.750Z,-0.49
2023-03-15T06:06:03.755Z,-0.53
2023-03-15T06:07:03.769Z,-0.39
2023-03-15T06:08:03.778Z,-0.42
2023-03-15T06:09:03.779Z,-0.36
2023-03-15T06:10:03.785Z,-0.31
2023-03-15T06:11:03.809Z,-0.33
2023-03-15T06:12:03.800Z,-0.30
2023-03-15T06:13:03.811Z,-0.28
2023-03-15T06:14:03.813Z,-0.18
2023-03-15T06:15:03.820Z,-0.21
2023-03-15T06:16:03.825Z,-0.15
2023-03-15T06:17:03.837Z,-0.07
2023-03-15T06:18:03.845Z,-0.12
2023-03-15T06:19:03.849Z,-0.07
2023-03-15T06:20:03.855Z,0.00
2023-03-15T06:21:03.865Z,0.09
2023-03-15T06:22:03.870Z,0.08
2023-03-15T06:23:03.886Z,0.08
2023-03-15T06:24:03.887Z,0.16
2023-03-15T06:25:03.894Z,0.18
2023-03-15T06:26:03.901Z,0.16
2023-03-15T06:27:03.916Z,0.20
2023-03-15T06:28:03.926Z,0.31
2023-03-15T06:29:03.930Z,0.26
2023-03-15T06:30:03.951Z,0.23
2023-03-15T06:31:03.982Z,0.27
2023-03-15T06:32:03.967Z,0.26
2023-03-15T06:33:04.054Z,0.31
2023-03-15T06:34:03.962Z,0.23
2023-03-15T06:35:03.972Z,0.29
2023-03-15T06:36:04.007Z,0.34
2023-03-15T06:37:03.989Z,0.33
2023-03-15T06:38:04.008Z,0.37
2023-03-15T06:39:04.011Z,0.37
2023-03-15T06:40:04.019Z,0.34
2023-03-15T06:41:04.020Z,0.36
2023-03-15T06:42:04.026Z,0.37
2023-03-15T06:43:04.038Z,0.44
2023-03-15T06:44:04.044Z,0.42
2023-03-15T06:45:04.057Z,0.44
2023-03-15T06:46:04.094Z,0.49
2023-03-15T06:47:04.068Z,0.48
2023-03-15T06:48:04.078Z,0.49
2023-03-15T06:49:04.084Z,0.45
2023-03-15T06:50:04.099Z,0.56
2023-03-15T06:51:04.135Z,0.51
2023-03-15T06:52:04.113Z,0.59
2023-03-15T06:53:04.119Z,0.56
2023-03-15T06:54:04.125Z,0.56
2023-03-15T06:55:04.132Z,0.58
2023-03-15T06:56:04.152Z,0.61
2023-03-15T06:57:04.155Z,0.68
2023-03-15T06:58:04.184Z,0.63
2023-03-15T06:59:04.165Z,0.58
2023-03-15T07:00:04.176Z,0.67
2023-03-15T07:01:04.190Z,0.71
2023-03-15T07:02:04.193Z,0.68
2023-03-15T07:03:04.297Z,0.74
2023-03-15T07:04:04.845Z,0.74
2023-03-15T07:05:04.227Z,0.82
2023-03-15T07:06:04.233Z,0.77
2023-03-15T07:07:04.243Z,0.86
2023-03-15T07:08:04.248Z,0.78
2023-03-15T07:09:04.258Z,0.91
2023-03-15T07:10:04.271Z,0.86
2023-03-15T07:11:04.278Z,0.86
2023-03-15T07:12:04.290Z,0.86
2023-03-15T07:13:04.317Z,0.91
2023-03-15T07:14:04.305Z,1.00
2023-03-15T07:15:04.334Z,0.95
2023-03-15T07:16:04.384Z,1.00
2023-03-15T07:17:04.335Z,0.96
2023-03-15T07:18:04.341Z,1.06
2023-03-15T07:19:04.356Z,1.06
2023-03-15T07:20:04.366Z,1.00
2023-03-15T07:21:04.376Z,1.04
2023-03-15T07:22:04.379Z,1.09
2023-03-15T07:23:04.388Z,1.18
2023-03-15T07:24:04.398Z,1.16
2023-03-15T07:25:04.408Z,1.10
2023-03-15T07:26:04.418Z,1.27
2023-03-15T07:27:04.469Z,1.31
2023-03-15T07:28:04.440Z,1.24
2023-03-15T07:29:04.448Z,1.25
2023-03-15T07:30:04.463Z,1.31
2023-03-15T07:31:04.464Z,1.36
2023-03-15T07:32:04.541Z,1.45
2023-03-15T07:33:04.529Z,1.40
2023-03-15T07:34:04.493Z,1.46
2023-03-15T07:35:04.501Z,1.52
2023-03-15T07:36:04.624Z,1.52
2023-03-15T07:37:04.552Z,1.61
2023-03-15T07:38:04.532Z,1.66
2023-03-15T07:39:04.541Z,1.70
2023-03-15T07:40:04.556Z,1.78
2023-03-15T07:41:04.569Z,1.74
2023-03-15T07:42:04.571Z,1.86
2023-03-15T07:43:04.582Z,1.93
2023-03-15T07:44:04.597Z,1.92
2023-03-15T07:45:04.601Z,2.00
2023-03-15T07:46:04.618Z,2.00
2023-03-15T07:47:04.646Z,2.10
2023-03-15T07:48:04.633Z,2.14
2023-03-15T07:49:04.641Z,2.23
2023-03-15T07:50:04.653Z,2.28
2023-03-15T07:51:04.683Z,2.39
2023-03-15T07:52:04.672Z,2.37
2023-03-15T07:53:04.681Z,2.33
2023-03-15T07:54:04.693Z,2.47
2023-03-15T07:55:04.705Z,2.64
2023-03-15T07:56:04.710Z,2.58
2023-03-15T07:57:04.726Z,2.73
2023-03-15T07:58:04.750Z,2.69
2023-03-15T07:59:04.758Z,2.70
2023-03-15T08:00:04.815Z,2.76
2023-03-15T08:01:04.781Z,2.91
2023-03-15T08:02:04.895Z,2.90
2023-03-15T08:03:04.817Z,2.90
2023-03-15T08:04:04.801Z,2.85
2023-03-15T08:05:04.821Z,2.90
2023-03-15T08:06:04.829Z,2.90
2023-03-15T08:07:04.841Z,3.00
2023-03-15T08:08:04.849Z,3.01
2023-03-15T08:09:04.858Z,2.87
2023-03-15T08:10:04.867Z,2.88
2023-03-15T08:11:04.881Z,2.87
2023-03-15T08:12:04.900Z,2.88
2023-03-15T08:13:04.904Z,2.94
2023-03-15T08:14:04.922Z,2.97
2023-03-15T08:15:04.923Z,3.05
2023-03-15T08:16:05.004Z,3.03
2023-03-15T08:17:04.950Z,3.01
2023-03-15T08:18:05.935Z,3.06
2023-03-15T08:19:05.006Z,3.12
2023-03-15T08:20:05.008Z,3.22
2023-03-15T08:21:05.004Z,3.26
2023-03-15T08:22:05.008Z,3.27
2023-03-15T08:23:05.012Z,3.26
2023-03-15T08:24:05.043Z,3.30
2023-03-15T08:25:05.055Z,3.41
2023-03-15T08:26:05.056Z,3.33
2023-03-15T08:27:05.098Z,3.45
2023-03-15T08:28:05.073Z,3.46
2023-03-15T08:29:05.084Z,3.49
2023-03-15T08:30:05.090Z,3.53
2023-03-15T08:31:05.105Z,3.58
2023-03-15T08:32:05.154Z,3.61
2023-03-15T08:33:05.265Z,3.63
2023-03-15T08:34:05.135Z,3.71
2023-03-15T08:35:05.150Z,3.78
2023-03-15T08:36:05.213Z,3.76
2023-03-15T08:37:05.177Z,3.81
2023-03-15T08:38:05.193Z,3.86
2023-03-15T08:39:05.197Z,3.88
2023-03-15T08:40:05.206Z,3.92
2023-03-15T08:41:05.219Z,3.86
2023-03-15T08:42:05.228Z,3.94
2023-03-15T08:43:05.238Z,3.89
2023-03-15T08:44:05.252Z,3.96
2023-03-15T08:45:05.267Z,4.04
2023-03-15T08:46:05.345Z,4.03
2023-03-15T08:47:05.332Z,4.03
2023-03-15T08:48:05.295Z,4.03
2023-03-15T08:49:05.310Z,3.94
2023-03-15T08:50:05.320Z,4.02
2023-03-15T08:51:05.334Z,4.00
2023-03-15T08:52:05.338Z,3.99
2023-03-15T08:53:05.356Z,3.95
2023-03-15T08:54:05.366Z,3.99
2023-03-15T08:55:05.373Z,4.04
2023-03-15T08:56:05.427Z,4.07
2023-03-15T08:57:05.397Z,4.12
2023-03-15T08:58:05.405Z,4.03
2023-03-15T08:59:05.419Z,4.03
2023-03-15T09:00:05.432Z,4.12
2023-03-15T09:01:05.448Z,4.18
2023-03-15T09:02:05.505Z,4.13
2023-03-15T09:03:05.464Z,4.09
2023-03-15T09:04:05.506Z,4.07
2023-03-15T09:05:05.486Z,4.13
2023-03-15T09:06:05.499Z,4.09
2023-03-15T09:07:05.508Z,4.06
2023-03-15T09:08:05.524Z,4.06
2023-03-15T09:09:05.544Z,4.25
2023-03-15T09:10:05.749Z,4.24
2023-03-15T09:11:05.553Z,4.39
2023-03-15T09:12:05.563Z,4.34
2023-03-15T09:13:05.579Z,4.30
2023-03-15T09:14:05.589Z,4.40
2023-03-15T09:15:07.570Z,4.38
2023-03-15T09:16:05.615Z,4.46
2023-03-15T09:17:05.653Z,4.50
2023-03-15T09:18:05.635Z,4.60
2023-03-15T09:19:05.665Z,4.63
2023-03-15T09:20:05.669Z,4.71
2023-03-15T09:21:05.673Z,4.75
2023-03-15T09:22:16.952Z,4.71
2023-03-15T09:23:05.699Z,4.75
2023-03-15T09:24:05.710Z,4.87
2023-03-15T09:25:05.739Z,4.89
2023-03-15T09:26:05.743Z,4.84
2023-03-15T09:27:05.752Z,4.82
2023-03-15T09:28:05.815Z,4.86
2023-03-15T09:29:05.781Z,4.90
2023-03-15T09:30:05.791Z,4.86
2023-03-15T09:31:05.820Z,4.90
2023-03-15T09:32:05.856Z,4.84
2023-03-15T09:33:05.921Z,4.92
2023-03-15T09:34:05.846Z,4.92
2023-03-15T09:35:05.876Z,4.94
2023-03-15T09:36:05.990Z,4.90
2023-03-15T09:37:05.891Z,4.92
2023-03-15T09:38:05.906Z,4.87
2023-03-15T09:39:05.914Z,4.95
2023-03-15T09:40:05.916Z,4.89
2023-03-15T09:41:05.933Z,4.95
2023-03-15T09:42:06.564Z,4.89
2023-03-15T09:43:05.955Z,4.90
2023-03-15T09:44:05.983Z,4.97
2023-03-15T09:45:05.983Z,4.92
2023-03-15T09:46:06.041Z,4.83
2023-03-15T09:47:06.028Z,4.86
2023-03-15T09:48:06.016Z,4.89
2023-03-15T09:49:06.062Z,4.87
2023-03-15T09:50:06.038Z,4.89
2023-03-15T09:51:06.056Z,4.90
2023-03-15T09:52:06.062Z,4.92
2023-03-15T09:53:06.079Z,4.94
2023-03-15T09:54:06.090Z,4.92
2023-03-15T09:55:06.101Z,4.87
2023-03-15T09:56:06.117Z,4.84
2023-03-15T09:57:06.127Z,4.87
2023-03-15T09:58:06.139Z,4.84
2023-03-15T09:59:06.173Z,4.87
2023-03-15T10:00:06.165Z,4.83
2023-03-15T10:01:06.263Z,4.75
2023-03-15T10:02:06.188Z,4.74
2023-03-15T10:03:06.207Z,4.87
2023-03-15T10:04:06.314Z,4.83
2023-03-15T10:05:06.236Z,4.89
2023-03-15T10:06:06.244Z,4.90
2023-03-15T10:07:06.251Z,4.89
2023-03-15T10:08:06.264Z,4.84
2023-03-15T10:09:06.278Z,4.95
2023-03-15T10:10:06.287Z,4.89
2023-03-15T10:11:06.310Z,4.87
2023-03-15T10:12:06.356Z,4.87
2023-03-15T10:13:06.326Z,4.92
2023-03-15T10:14:06.342Z,4.86
2023-03-15T10:15:06.349Z,4.89
2023-03-15T10:16:06.431Z,4.89
2023-03-15T10:17:06.376Z,4.92
2023-03-15T10:18:06.387Z,4.89
2023-03-15T10:19:06.401Z,4.95
2023-03-15T10:20:06.415Z,5.00
2023-03-15T10:21:07.683Z,5.01
2023-03-15T10:22:06.439Z,5.01
2023-03-15T10:23:06.453Z,5.12
2023-03-15T10:24:06.463Z,5.16
2023-03-15T10:25:06.502Z,5.29
2023-03-15T10:26:06.489Z,5.29
2023-03-15T10:27:06.500Z,5.47
2023-03-15T10:28:06.512Z,5.64
2023-03-15T10:29:06.528Z,5.55
2023-03-15T10:30:06.542Z,5.61
2023-03-15T10:31:06.584Z,5.67
2023-03-15T10:32:06.585Z,5.73
2023-03-15T10:33:06.574Z,5.73
2023-03-15T10:34:06.584Z,5.77
2023-03-15T10:35:06.600Z,5.70
2023-03-15T10:36:11.398Z,5.72
2023-03-15T10:37:06.624Z,5.67
2023-03-15T10:38:06.634Z,5.58
2023-03-15T10:39:06.649Z,5.56
2023-03-15T10:40:06.664Z,5.46
2023-03-15T10:41:06.678Z,5.49
2023-03-15T10:42:06.687Z,5.38
2023-03-15T10:43:06.866Z,5.29
2023-03-15T10:44:06.711Z,5.22
2023-03-15T10:45:06.722Z,5.23
2023-03-15T10:46:06.827Z,5.16
2023-03-15T10:47:21.441Z,5.16
2023-03-15T10:48:06.760Z,5.12
2023-03-15T10:49:06.790Z,5.10
2023-03-15T10:50:06.783Z,5.01
2023-03-15T10:51:06.811Z,5.04
2023-03-15T10:52:06.808Z,5.02
2023-03-15T10:53:06.820Z,4.90
2023-03-15T10:54:06.835Z,4.94
2023-03-15T10:55:06.846Z,4.89
2023-03-15T10:56:06.856Z,4.98
2023-03-15T10:57:06.866Z,5.01
2023-03-15T10:58:06.877Z,5.07
2023-03-15T10:59:12.783Z,5.08
2023-03-15T11:00:06.903Z,5.13
2023-03-15T11:01:06.914Z,5.18
2023-03-15T11:02:06.982Z,5.18
2023-03-15T11:03:06.985Z,5.16
2023-03-15T11:04:06.959Z,5.12
2023-03-15T11:05:06.969Z,5.12
2023-03-15T11:06:06.976Z,5.19
2023-03-15T11:07:06.989Z,5.19
2023-03-15T11:08:07.001Z,5.19
2023-03-15T11:09:07.012Z,5.19
2023-03-15T11:10:07.024Z,5.23
2023-03-15T11:11:07.041Z,5.20
2023-03-15T11:12:07.050Z,5.33
2023-03-15T11:13:07.062Z,5.33
2023-03-15T11:14:07.071Z,5.33
2023-03-15T11:15:07.084Z,5.37
2023-03-15T11:16:07.109Z,5.43
2023-03-15T11:17:07.105Z,5.47
2023-03-15T11:18:09.378Z,5.44
2023-03-15T11:19:07.134Z,5.49
2023-03-15T11:20:07.146Z,5.54
2023-03-15T11:21:07.156Z,5.44
2023-03-15T11:22:07.167Z,5.47
2023-03-15T11:23:07.179Z,5.44
2023-03-15T11:24:07.192Z,5.41
2023-03-15T11:25:07.207Z,5.31
2023-03-15T11:26:07.236Z,5.19
2023-03-15T11:27:07.239Z,5.16
2023-03-15T11:28:07.240Z,5.20
2023-03-15T11:29:07.259Z,5.15
2023-03-15T11:30:07.266Z,5.16
2023-03-15T11:31:07.318Z,5.18
2023-03-15T11:32:07.287Z,5.10
2023-03-15T11:33:07.410Z,5.13
2023-03-15T11:34:07.314Z,5.15
2023-03-15T11:35:07.323Z,5.12
2023-03-15T11:36:07.339Z,5.19
2023-03-15T11:37:08.894Z,5.18
2023-03-15T11:38:15.236Z,5.13
2023-03-15T11:39:07.374Z,5.13
2023-03-15T11:40:12.155Z,5.16
2023-03-15T11:41:07.399Z,5.20
2023-03-15T11:42:08.481Z,5.23
2023-03-15T11:43:07.439Z,5.20
2023-03-15T11:44:07.434Z,5.19
2023-03-15T11:45:07.452Z,5.20
2023-03-15T11:46:07.505Z,5.23
2023-03-15T11:47:07.501Z,5.19
2023-03-15T11:48:07.482Z,5.19
2023-03-15T11:49:07.494Z,5.19
2023-03-15T11:50:07.505Z,5.16
2023-03-15T11:51:07.523Z,5.20
2023-03-15T11:52:07.557Z,5.19
2023-03-15T11:53:07.541Z,5.19
2023-03-15T11:54:07.560Z,5.05
2023-03-15T11:55:07.565Z,5.16
2023-03-15T11:56:07.579Z,5.19
2023-03-15T11:57:07.587Z,5.16
2023-03-15T11:58:07.601Z,5.22
2023-03-15T11:59:07.613Z,5.23
2023-03-15T12:00:07.664Z,5.20
2023-03-15T12:01:07.638Z,5.31
2023-03-15T12:02:07.674Z,5.22
2023-03-15T12:03:07.692Z,5.25
2023-03-15T12:04:07.674Z,5.25
2023-03-15T12:05:17.657Z,5.20
2023-03-15T12:06:07.694Z,5.16
2023-03-15T12:07:07.711Z,5.15
2023-03-15T12:08:07.740Z,5.10
2023-03-15T12:09:07.736Z,5.05
2023-03-15T12:10:07.744Z,5.04
2023-03-15T12:11:07.760Z,4.97
2023-03-15T12:12:07.786Z,4.95
2023-03-15T12:13:07.801Z,4.89
2023-03-15T12:14:07.808Z,4.90
2023-03-15T12:15:07.842Z,4.90
2023-03-15T12:16:07.810Z,4.83
2023-03-15T12:17:07.823Z,4.90
2023-03-15T12:18:07.836Z,4.84
2023-03-15T12:19:07.845Z,4.84
2023-03-15T12:20:07.856Z,4.95
2023-03-15T12:21:07.902Z,4.90
2023-03-15T12:22:07.877Z,4.90
2023-03-15T12:23:07.892Z,4.95
2023-03-15T12:24:07.905Z,4.98
2023-03-15T12:25:07.912Z,5.00
2023-03-15T12:26:07.930Z,5.01
2023-03-15T12:27:07.941Z,5.07
2023-03-15T12:28:07.946Z,5.04
2023-03-15T12:29:07.960Z,4.97
2023-03-15T12:30:07.964Z,4.97
2023-03-15T12:31:08.071Z,5.07
2023-03-15T12:32:08.002Z,5.01
2023-03-15T12:33:07.995Z,5.07
2023-03-15T12:34:08.021Z,5.15
2023-03-15T12:35:08.016Z,5.16
2023-03-15T12:36:08.159Z,5.25
2023-03-15T12:37:08.042Z,5.20
2023-03-15T12:38:08.053Z,5.29
2023-03-15T12:39:08.061Z,5.31
2023-03-15T12:40:08.073Z,5.36
2023-03-15T12:41:08.094Z,5.34
2023-03-15T12:42:08.096Z,5.43
2023-03-15T12:43:08.108Z,5.41
2023-03-15T12:44:08.118Z,5.44
2023-03-15T12:45:08.128Z,5.58
2023-03-15T12:46:08.263Z,5.64
2023-03-15T12:47:08.157Z,5.59
2023-03-15T12:48:08.163Z,5.56
2023-03-15T12:49:08.175Z,5.52
2023-03-15T12:50:08.192Z,5.58
2023-03-15T12:51:08.198Z,5.56
2023-03-15T12:52:08.213Z,5.67
2023-03-15T12:53:08.224Z,5.59
2023-03-15T12:54:08.234Z,5.76
2023-03-15T12:55:08.247Z,5.77
2023-03-15T12:56:08.996Z,5.81
2023-03-15T12:57:08.267Z,5.81
2023-03-15T12:58:08.279Z,5.81
2023-03-15T12:59:08.290Z,5.95
2023-03-15T13:00:08.316Z,5.91
2023-03-15T13:01:08.373Z,6.07
2023-03-15T13:02:08.328Z,6.12
2023-03-15T13:03:08.387Z,6.13
2023-03-15T13:04:08.354Z,6.26
2023-03-15T13:05:08.365Z,6.31
2023-03-15T13:06:08.379Z,6.28
2023-03-15T13:07:08.397Z,6.41
2023-03-15T13:08:08.410Z,6.49
2023-03-15T13:09:08.427Z,6.50
2023-03-15T13:10:08.428Z,6.53
2023-03-15T13:11:08.439Z,6.49
2023-03-15T13:12:08.497Z,6.44